createdAt,value
2022-08-11T00:02:32.106Z,59.76
2022-08-11T00:05:06.170Z,59.96
2022-08-11T00:07:36.145Z,61.12
2022-08-11T00:10:04.700Z,61.10
2022-08-11T00:12:33.110Z,62.37
2022-08-11T00:15:02.249Z,65.13
2022-08-11T00:17:34.098Z,65.92
2022-08-11T00:20:15.369Z,65.01
2022-08-11T00:22:47.951Z,67.64
2022-08-11T00:25:18.453Z,68.46
2022-08-11T00:27:48.072Z,69.36
2022-08-11T00:30:17.315Z,67.88
2022-08-11T00:32:54.827Z,64.70
2022-08-11T00:35:51.762Z,64.48
2022-08-11T00:38:18.287Z,69.10
2022-08-11T00:40:53.121Z,71.87
2022-08-11T00:43:43.416Z,68.39
2022-08-11T00:46:19.256Z,67.34
2022-08-11T00:48:57.204Z,68.09
2022-08-11T00:52:02.295Z,68.70
2022-08-11T00:54:54.629Z,66.95
2022-08-11T00:58:07.219Z,68.79
2022-08-11T01:00:48.510Z,69.80
2022-08-11T01:03:26.435Z,71.40
2022-08-11T01:06:22.700Z,70.97
2022-08-11T01:09:24.303Z,68.15
2022-08-11T01:12:07.110Z,67.01
2022-08-11T01:15:09.677Z,71.92
2022-08-11T01:18:12.444Z,73.13
2022-08-11T01:21:19.887Z,69.14
2022-08-11T01:24:31.409Z,77.05
2022-08-11T01:27:39.622Z,75.46
2022-08-11T01:30:49.780Z,76.44
2022-08-11T01:33:52.818Z,73.17
2022-08-11T01:36:56.618Z,71.92
2022-08-11T01:39:55.516Z,72.30
2022-08-11T01:43:17.117Z,76.47
2022-08-11T01:45:51.755Z,72.12
2022-08-11T01:48:29.502Z,71.38
2022-08-11T01:51:17.283Z,69.82
2022-08-11T01:53:56.555Z,69.67
2022-08-11T01:56:35.476Z,69.96
2022-08-11T01:59:12.176Z,70.11
2022-08-11T02:01:51.942Z,74.67
2022-08-11T02:04:31.963Z,68.94
2022-08-11T02:07:08.838Z,75.98
2022-08-11T02:09:57.511Z,74.97
2022-08-11T02:12:52.504Z,73.60
2022-08-11T02:15:28.815Z,73.08
2022-08-11T02:18:07.399Z,71.73
2022-08-11T02:21:01.553Z,75.96
2022-08-11T02:24:06.642Z,76.55
2022-08-11T02:26:40.371Z,73.38
2022-08-11T02:29:15.423Z,72.77
2022-08-11T02:32:24.276Z,76.28
2022-08-11T02:35:01.335Z,76.53
2022-08-11T02:37:39.132Z,78.75
2022-08-11T02:40:18.178Z,80.79
2022-08-11T02:42:59.737Z,77.51
2022-08-11T02:45:42.202Z,78.36
2022-08-11T02:49:01.554Z,78.21
2022-08-11T02:51:39.046Z,78.04
2022-08-11T02:54:12.555Z,79.74
2022-08-11T02:56:52.744Z,80.82
2022-08-11T02:59:53.871Z,79.43
2022-08-11T03:02:31.673Z,79.14
2022-08-11T03:05:09.228Z,75.67
2022-08-11T03:08:08.825Z,74.29
2022-08-11T03:10:45.262Z,72.60
2022-08-11T03:13:38.463Z,69.42
2022-08-11T03:16:32.470Z,71.60
2022-08-11T03:19:08.907Z,74.00
2022-08-11T03:22:02.474Z,75.75
2022-08-11T03:24:38.592Z,79.18
2022-08-11T03:27:11.099Z,81.04
2022-08-11T03:29:44.675Z,81.83
2022-08-11T03:32:25.849Z,85.53
2022-08-11T03:34:55.183Z,86.18
2022-08-11T03:37:50.530Z,91.42
2022-08-11T03:40:52.629Z,91.28
2022-08-11T03:43:30.617Z,88.93
2022-08-11T03:46:05.402Z,87.49
2022-08-11T03:48:44.679Z,86.53
2022-08-11T03:51:21.285Z,86.74
2022-08-11T03:53:57.525Z,89.44
2022-08-11T03:57:16.214Z,90.27
2022-08-11T04:00:12.361Z,90.32
2022-08-11T04:02:57.167Z,94.38
2022-08-11T04:06:03.656Z,94.43
2022-08-11T04:08:56.946Z,91.95
2022-08-11T04:11:54.983Z,94.70
2022-08-11T04:15:01.484Z,98.62
2022-08-11T04:17:54.131Z,100.00
2022-08-11T04:20:50.590Z,96.10
2022-08-11T04:24:35.917Z,95.33
2022-08-11T04:27:07.369Z,98.55
2022-08-11T04:30:03.470Z,96.55
2022-08-11T04:32:46.154Z,97.25
2022-08-11T04:35:33.386Z,100.00
2022-08-11T04:38:26.046Z,100.00
2022-08-11T04:41:58.771Z,100.00
2022-08-11T04:45:12.151Z,100.00
2022-08-11T04:48:10.288Z,97.78
2022-08-11T04:51:23.267Z,100.00
2022-08-11T04:54:19.550Z,94.72
2022-08-11T04:57:07.346Z,96.53
2022-08-11T05:00:07.424Z,90.88
2022-08-11T05:03:09.230Z,100.00
2022-08-11T05:05:56.181Z,94.73
2022-08-11T05:08:48.312Z,99.05
2022-08-11T05:11:38.082Z,95.29
2022-08-11T05:14:45.647Z,89.71
2022-08-11T05:17:34.436Z,94.00
2022-08-11T05:20:20.397Z,94.01
2022-08-11T05:23:07.790Z,95.57
2022-08-11T05:26:44.012Z,91.40
2022-08-11T05:29:19.801Z,90.53
2022-08-11T05:32:14.846Z,87.90
2022-08-11T05:34:54.866Z,80.05
2022-08-11T05:37:27.829Z,80.10
2022-08-11T05:40:16.750Z,80.32
2022-08-11T05:43:07.877Z,76.40
2022-08-11T05:46:02.557Z,76.08
2022-08-11T05:48:52.566Z,76.74
2022-08-11T05:51:38.569Z,76.21
2022-08-11T05:54:29.509Z,76.41
2022-08-11T05:57:00.760Z,72.62
2022-08-11T05:59:29.454Z,70.09
2022-08-11T06:02:04.244Z,70.30
2022-08-11T06:04:33.184Z,68.72
2022-08-11T06:07:04.127Z,67.10
2022-08-11T06:09:35.147Z,65.10
2022-08-11T06:12:08.546Z,62.37
2022-08-11T06:14:43.625Z,63.54
2022-08-11T06:17:13.863Z,59.74
2022-08-11T06:19:43.751Z,57.03
2022-08-11T06:22:12.848Z,54.04
2022-08-11T06:24:45.600Z,51.86
2022-08-11T06:27:20.885Z,53.65
2022-08-11T06:29:54.717Z,52.35
2022-08-11T06:32:30.690Z,52.79
2022-08-11T06:35:13.562Z,52.50
2022-08-11T06:37:48.638Z,52.65
2022-08-11T06:40:28.588Z,49.84
2022-08-11T06:43:02.342Z,49.55
2022-08-11T06:45:40.164Z,48.99
2022-08-11T06:48:17.518Z,48.56
2022-08-11T06:51:09.600Z,49.83
2022-08-11T06:53:41.096Z,49.83
2022-08-11T06:56:27.742Z,48.89
2022-08-11T06:59:13.728Z,48.12
2022-08-11T07:01:49.692Z,47.55
2022-08-11T07:04:29.826Z,46.82
2022-08-11T07:07:25.544Z,45.76
2022-08-11T07:10:35.917Z,44.63
2022-08-11T07:13:44.654Z,44.28
2022-08-11T07:16:13.904Z,43.56
2022-08-11T07:19:01.470Z,40.97
2022-08-11T07:22:02.565Z,40.26
2022-08-11T07:24:59.549Z,39.91
2022-08-11T07:27:51.723Z,39.39
2022-08-11T07:30:20.003Z,38.80
2022-08-11T07:32:51.726Z,38.83
2022-08-11T07:35:23.891Z,38.91
2022-08-11T07:38:01.760Z,38.43
2022-08-11T07:40:31.599Z,37.92
2022-08-11T07:43:01.141Z,38.09
2022-08-11T07:45:46.996Z,38.20
2022-08-11T07:48:33.881Z,38.00
2022-08-11T07:51:19.983Z,38.45
2022-08-11T07:53:58.606Z,37.78
2022-08-11T07:56:39.492Z,37.93
2022-08-11T07:59:58.536Z,38.66
2022-08-11T08:02:58.174Z,38.18
2022-08-11T08:05:44.016Z,38.64
2022-08-11T08:08:29.818Z,37.94
2022-08-11T08:11:16.831Z,37.95
2022-08-11T08:14:02.882Z,38.13
2022-08-11T08:16:49.704Z,37.45
2022-08-11T08:19:20.745Z,38.24
2022-08-11T08:21:49.293Z,37.88
2022-08-11T08:24:20.224Z,37.37
2022-08-11T08:27:03.247Z,37.40
2022-08-11T08:29:51.860Z,36.35
2022-08-11T08:32:21.869Z,36.73
2022-08-11T08:34:54.255Z,36.27
2022-08-11T08:37:46.710Z,36.69
2022-08-11T08:40:14.879Z,36.22
2022-08-11T08:42:51.505Z,36.84
2022-08-11T08:45:19.883Z,36.66
2022-08-11T08:47:53.784Z,36.65
2022-08-11T08:50:27.765Z,36.18
2022-08-11T08:52:59.713Z,35.75
2022-08-11T08:55:28.937Z,35.82
2022-08-11T08:58:00.718Z,36.37
2022-08-11T09:00:40.140Z,35.76
2022-08-11T09:03:38.247Z,34.79
2022-08-11T09:05:57.199Z,34.68
2022-08-11T09:08:25.598Z,34.46
2022-08-11T09:11:13.302Z,34.13
2022-08-11T09:13:44.750Z,34.25
2022-08-11T09:16:13.441Z,33.46
2022-08-11T09:18:44.644Z,33.32
2022-08-11T09:21:14.862Z,32.72
2022-08-11T09:24:26.086Z,32.11
2022-08-11T09:27:01.173Z,31.36
2022-08-11T09:29:32.284Z,31.87
2022-08-11T09:32:00.993Z,31.38
2022-08-11T09:34:29.787Z,31.89
2022-08-11T09:37:19.576Z,32.16
2022-08-11T09:40:27.247Z,31.91
2022-08-11T09:43:13.451Z,31.11
2022-08-11T09:45:46.290Z,32.04
2022-08-11T09:48:14.759Z,30.84
2022-08-11T09:50:43.138Z,30.63
2022-08-11T09:53:36.456Z,30.37
2022-08-11T09:56:20.889Z,29.48
2022-08-11T09:58:48.309Z,30.54
2022-08-11T10:01:27.656Z,29.54
2022-08-11T10:04:01.417Z,29.13
2022-08-11T10:06:47.902Z,28.81
2022-08-11T10:09:25.298Z,29.61
2022-08-11T10:11:58.576Z,28.98
2022-08-11T10:14:46.547Z,29.16
2022-08-11T10:17:17.480Z,29.81
2022-08-11T10:20:05.207Z,29.28
2022-08-11T10:22:55.167Z,29.01
2022-08-11T10:25:41.154Z,27.83
2022-08-11T10:28:30.371Z,27.58
2022-08-11T10:31:16.820Z,28.56
2022-08-11T10:34:03.903Z,28.88
2022-08-11T10:36:33.813Z,28.64
2022-08-11T10:39:06.283Z,28.26
2022-08-11T10:42:08.719Z,28.10
2022-08-11T10:44:40.145Z,29.13
2022-08-11T10:47:26.711Z,27.60
2022-08-11T10:50:11.359Z,26.91
2022-08-11T10:52:58.305Z,26.40
2022-08-11T10:55:44.731Z,25.27
2022-08-11T10:58:30.692Z,25.41
2022-08-11T11:00:59.423Z,26.13
2022-08-11T11:03:29.845Z,26.95
2022-08-11T11:06:27.760Z,27.60
2022-08-11T11:09:04.030Z,28.24
2022-08-11T11:11:55.049Z,27.21
2022-08-11T11:14:46.399Z,26.67
2022-08-11T11:17:44.049Z,26.78
2022-08-11T11:20:36.078Z,26.19
2022-08-11T11:23:09.407Z,26.10
2022-08-11T11:26:06.763Z,25.83
2022-08-11T11:29:00.560Z,27.31
2022-08-11T11:31:40.618Z,27.53
2022-08-11T11:34:20.118Z,27.41
2022-08-11T11:36:50.672Z,27.30
2022-08-11T11:39:23.958Z,27.91
2022-08-11T11:41:54.681Z,27.51
2022-08-11T11:44:23.796Z,28.21
2022-08-11T11:46:52.311Z,27.60
2022-08-11T11:51:59.490Z,28.33
2022-08-11T11:54:31.494Z,28.13
2022-08-11T11:57:20.744Z,28.21
2022-08-11T12:00:07.199Z,27.83
2022-08-11T12:02:39.101Z,27.93
2022-08-11T12:05:09.017Z,27.59
2022-08-11T12:07:56.897Z,27.64
2022-08-11T12:10:45.633Z,27.66
2022-08-11T12:13:32.147Z,26.72
2022-08-11T12:16:33.683Z,26.43
2022-08-11T12:18:54.473Z,25.55
2022-08-11T12:21:23.091Z,24.10
2022-08-11T12:24:09.253Z,23.50
2022-08-11T12:27:14.989Z,23.37
2022-08-11T12:29:45.360Z,22.52
2022-08-11T12:32:13.594Z,20.97
2022-08-11T12:34:42.010Z,22.14
2022-08-11T12:37:13.782Z,21.83
2022-08-11T12:40:17.187Z,22.56
2022-08-11T12:43:21.717Z,22.27
2022-08-11T12:45:52.672Z,22.14
2022-08-11T12:49:00.784Z,21.88
2022-08-11T12:52:11.287Z,22.22
2022-08-11T12:54:46.259Z,22.23
2022-08-11T12:57:37.438Z,21.84
2022-08-11T13:00:27.207Z,21.11
2022-08-11T13:03:13.668Z,21.04
2022-08-11T13:05:45.080Z,20.49
2022-08-11T13:08:15.270Z,20.10
2022-08-11T13:11:02.003Z,20.92
2022-08-11T13:13:55.741Z,21.23
2022-08-11T13:16:20.768Z,20.50
2022-08-11T13:18:50.247Z,19.88
2022-08-11T13:21:20.060Z,19.83
2022-08-11T13:24:00.758Z,18.87
2022-08-11T13:26:46.941Z,18.86
2022-08-11T13:29:19.930Z,19.79
2022-08-11T13:31:49.697Z,19.52
2022-08-11T13:34:18.491Z,20.00
2022-08-11T13:36:50.110Z,20.33
2022-08-11T13:39:19.030Z,20.33
2022-08-11T13:41:48.602Z,20.56
2022-08-11T13:44:24.708Z,20.52
2022-08-11T13:46:56.399Z,20.78
2022-08-11T13:49:25.235Z,21.09
2022-08-11T13:51:53.999Z,22.35
2022-08-11T13:54:24.847Z,22.36
2022-08-11T13:56:56.162Z,22.80
2022-08-11T13:59:29.904Z,22.51
2022-08-11T14:02:28.497Z,22.97
2022-08-11T14:04:55.603Z,23.49
2022-08-11T14:07:26.102Z,25.11
2022-08-11T14:09:57.894Z,24.54
2022-08-11T14:12:45.312Z,24.30
2022-08-11T14:15:20.216Z,25.16
2022-08-11T14:17:54.263Z,25.07
2022-08-11T14:20:40.126Z,25.35
2022-08-11T14:23:11.096Z,26.16
2022-08-11T14:26:02.438Z,24.96
2022-08-11T14:28:39.902Z,24.53
2022-08-11T14:31:10.334Z,23.77
2022-08-11T14:33:59.859Z,22.71
2022-08-11T14:36:31.867Z,21.55
2022-08-11T14:39:00.217Z,21.43
2022-08-11T14:42:10.302Z,21.26
2022-08-11T14:45:02.137Z,21.04
2022-08-11T14:47:33.152Z,21.32
2022-08-11T14:50:10.917Z,21.05
2022-08-11T14:52:51.125Z,21.02
2022-08-11T14:55:39.673Z,20.20
2022-08-11T14:58:10.151Z,19.78
2022-08-11T15:00:39.096Z,20.39
2022-08-11T15:03:13.555Z,20.96
2022-08-11T15:05:57.591Z,20.57
2022-08-11T15:08:42.844Z,20.10
2022-08-11T15:11:32.416Z,20.67
2022-08-11T15:14:02.617Z,21.68
2022-08-11T15:16:53.919Z,21.86
2022-08-11T15:19:22.646Z,21.69
2022-08-11T15:22:09.871Z,22.62
2022-08-11T15:24:38.510Z,23.33
2022-08-11T15:27:28.504Z,23.13
2022-08-11T15:30:18.253Z,23.83
2022-08-11T15:33:20.871Z,23.85
2022-08-11T15:36:06.453Z,24.06
2022-08-11T15:38:37.418Z,24.66
2022-08-11T15:41:24.373Z,24.68
2022-08-11T15:44:44.453Z,25.23
2022-08-11T15:47:14.432Z,25.04
2022-08-11T15:50:11.734Z,25.90
2022-08-11T15:52:37.945Z,26.58
2022-08-11T15:55:09.633Z,27.31
2022-08-11T15:57:55.485Z,27.69
2022-08-11T16:00:41.852Z,27.34
2022-08-11T16:04:06.519Z,26.58
2022-08-11T16:06:17.272Z,26.02
2022-08-11T16:08:46.199Z,26.55
2022-08-11T16:11:16.551Z,26.88
2022-08-11T16:14:02.295Z,25.76
2022-08-11T16:16:34.599Z,25.65
2022-08-11T16:19:05.378Z,25.55
2022-08-11T16:21:36.306Z,25.71
2022-08-11T16:24:08.113Z,26.03
2022-08-11T16:27:11.066Z,26.37
2022-08-11T16:29:32.914Z,26.14
2022-08-11T16:32:18.388Z,26.61
2022-08-11T16:35:06.589Z,26.48
2022-08-11T16:37:55.767Z,26.58
2022-08-11T16:40:24.648Z,26.26
2022-08-11T16:43:12.740Z,26.60
2022-08-11T16:45:59.935Z,26.45
2022-08-11T16:48:37.325Z,27.16
2022-08-11T16:51:07.293Z,27.09
2022-08-11T16:53:59.854Z,27.93
2022-08-11T16:56:26.772Z,28.16
2022-08-11T16:59:16.657Z,28.28
2022-08-11T17:01:49.578Z,28.19
2022-08-11T17:04:40.313Z,28.53
2022-08-11T17:07:40.471Z,28.53
2022-08-11T17:10:55.655Z,28.67
2022-08-11T17:13:32.248Z,28.77
2022-08-11T17:16:12.390Z,29.27
2022-08-11T17:18:47.498Z,29.09
2022-08-11T17:21:20.117Z,29.05
2022-08-11T17:23:51.076Z,29.37
2022-08-11T17:26:27.005Z,29.58
2022-08-11T17:28:58.415Z,29.47
2022-08-11T17:31:46.369Z,29.75
2022-08-11T17:34:32.866Z,29.87
2022-08-11T17:37:02.527Z,29.54
2022-08-11T17:39:34.804Z,29.91
2022-08-11T17:42:20.430Z,30.10
2022-08-11T17:45:07.027Z,30.28
2022-08-11T17:47:53.999Z,30.35
2022-08-11T17:50:22.580Z,30.37
2022-08-11T17:53:08.862Z,30.13
2022-08-11T17:55:56.035Z,30.64
2022-08-11T17:58:44.280Z,30.94
2022-08-11T18:01:13.238Z,31.49
2022-08-11T18:03:56.424Z,31.51
2022-08-11T18:06:33.824Z,31.31
2022-08-11T18:09:22.905Z,31.28
2022-08-11T18:12:12.230Z,31.47
2022-08-11T18:14:59.550Z,31.20
2022-08-11T18:17:45.108Z,30.79
2022-08-11T18:20:32.402Z,31.62
2022-08-11T18:23:18.468Z,31.84
2022-08-11T18:26:06.475Z,31.74
2022-08-11T18:28:58.184Z,31.61
2022-08-11T18:31:44.702Z,31.59
2022-08-11T18:34:33.007Z,31.43
2022-08-11T18:37:25.970Z,31.12
2022-08-11T18:40:17.073Z,31.36
2022-08-11T18:43:03.984Z,31.29
2022-08-11T18:45:51.288Z,31.44
2022-08-11T18:48:54.647Z,31.62
2022-08-11T18:51:42.114Z,31.87
2022-08-11T18:54:30.417Z,31.69
2022-08-11T18:57:19.823Z,31.67
2022-08-11T19:00:06.671Z,31.81
2022-08-11T19:02:54.685Z,31.80
2022-08-11T19:06:35.688Z,31.86
2022-08-11T19:08:49.334Z,31.71
2022-08-11T19:11:42.472Z,31.56
2022-08-11T19:14:30.977Z,31.66
2022-08-11T19:17:44.786Z,31.57
2022-08-11T19:20:27.378Z,31.44
2022-08-11T19:23:14.407Z,31.49
2022-08-11T19:26:02.423Z,31.72
2022-08-11T19:28:50.441Z,31.02
2022-08-11T19:31:42.283Z,31.00
2022-08-11T19:34:36.234Z,30.99
2022-08-11T19:37:25.000Z,30.95
2022-08-11T19:40:11.960Z,30.80
2022-08-11T19:42:59.271Z,30.51
2022-08-11T19:45:51.206Z,29.94
2022-08-11T19:48:40.669Z,30.46
2022-08-11T19:51:28.171Z,30.83
2022-08-11T19:54:14.299Z,30.40
2022-08-11T19:57:01.949Z,30.37
2022-08-11T19:59:48.578Z,30.42
2022-08-11T20:02:35.990Z,30.49
2022-08-11T20:05:22.559Z,30.17
2022-08-11T20:08:08.549Z,30.60
2022-08-11T20:10:55.616Z,30.52
2022-08-11T20:13:43.503Z,31.01
2022-08-11T20:16:31.418Z,30.61
2022-08-11T20:19:26.320Z,30.45
2022-08-11T20:22:26.447Z,30.25
2022-08-11T20:25:13.597Z,30.15
2022-08-11T20:28:01.020Z,30.11
2022-08-11T20:30:47.990Z,30.82
2022-08-11T20:33:38.194Z,30.76
2022-08-11T20:36:26.486Z,30.29
2022-08-11T20:39:13.051Z,30.60
2022-08-11T20:41:59.708Z,30.74
2022-08-11T20:44:46.443Z,30.75
2022-08-11T20:47:33.490Z,31.11
2022-08-11T20:50:39.655Z,31.31
2022-08-11T20:53:27.314Z,31.60
2022-08-11T20:56:14.577Z,31.77
2022-08-11T20:59:14.273Z,31.87
2022-08-11T21:02:09.415Z,31.80
2022-08-11T21:04:55.536Z,32.24
2022-08-11T21:07:42.450Z,32.02
2022-08-11T21:10:30.075Z,31.55
2022-08-11T21:13:26.790Z,31.70
2022-08-11T21:16:26.354Z,31.67
2022-08-11T21:19:16.626Z,32.20
2022-08-11T21:22:03.831Z,32.21
2022-08-11T21:24:52.427Z,32.20
2022-08-11T21:27:40.371Z,32.36
2022-08-11T21:30:27.237Z,32.22
2022-08-11T21:36:29.166Z,32.72
2022-08-11T21:39:17.447Z,33.14
2022-08-11T21:42:05.349Z,33.06
2022-08-11T21:44:53.798Z,33.05
2022-08-11T21:47:42.961Z,32.74
2022-08-11T21:50:30.227Z,32.71
2022-08-11T21:53:16.799Z,32.68
2022-08-11T21:56:02.714Z,33.24
2022-08-11T21:58:49.313Z,34.08
2022-08-11T22:01:37.289Z,33.62
2022-08-11T22:04:24.006Z,33.38
2022-08-11T22:07:10.542Z,33.30
2022-08-11T22:09:57.148Z,34.11
2022-08-11T22:12:45.197Z,33.95
2022-08-11T22:15:31.237Z,34.11
2022-08-11T22:18:19.709Z,34.24
2022-08-11T22:21:05.798Z,34.37
2022-08-11T22:23:52.961Z,34.55
2022-08-11T22:26:41.287Z,34.85
2022-08-11T22:29:49.966Z,34.86
2022-08-11T22:32:34.426Z,34.83
2022-08-11T22:35:22.830Z,34.12
2022-08-11T22:38:08.688Z,33.89
2022-08-11T22:40:55.762Z,34.42
2022-08-11T22:43:41.708Z,34.92
2022-08-11T22:46:27.842Z,34.92
2022-08-11T22:49:14.410Z,35.21
2022-08-11T22:52:03.505Z,35.10
2022-08-11T22:54:50.921Z,35.37
2022-08-11T22:57:36.942Z,35.41
2022-08-11T23:00:25.061Z,36.25
2022-08-11T23:03:21.097Z,35.84
2022-08-11T23:06:23.610Z,36.01
2022-08-11T23:09:11.762Z,36.21
2022-08-11T23:12:05.932Z,36.39
2022-08-11T23:15:04.657Z,36.60
2022-08-11T23:17:51.954Z,37.13
2022-08-11T23:20:42.476Z,37.62
2022-08-11T23:23:30.439Z,37.72
2022-08-11T23:26:34.884Z,37.46
2022-08-11T23:29:22.582Z,37.37
2022-08-11T23:32:09.155Z,37.46
2022-08-11T23:35:03.860Z,37.26
2022-08-11T23:37:52.134Z,36.68
2022-08-11T23:40:40.379Z,36.54
2022-08-11T23:43:47.500Z,36.47
2022-08-11T23:46:33.303Z,36.53
2022-08-11T23:49:21.824Z,36.28
2022-08-11T23:52:08.406Z,36.32
2022-08-11T23:54:54.826Z,36.05
2022-08-11T23:57:47.782Z,36.65
